createdAt,value
2023-04-05T04:02:07.960Z,-4.38
2023-04-05T04:04:34.728Z,-4.30
2023-04-05T04:07:01.748Z,-4.29
2023-04-05T04:09:29.866Z,-4.29
2023-04-05T04:11:58.301Z,-4.33
2023-04-05T04:14:24.898Z,-4.45
2023-04-05T04:17:10.018Z,-4.45
2023-04-05T04:19:51.357Z,-4.51
2023-04-05T04:22:42.712Z,-4.41
2023-04-05T04:25:30.915Z,-4.49
2023-04-05T04:28:19.600Z,-4.54
2023-04-05T04:31:13.910Z,-4.45
2023-04-05T04:34:13.484Z,-4.53
2023-04-05T04:36:42.985Z,-4.51
2023-04-05T04:39:45.142Z,-4.51
2023-04-05T04:42:26.929Z,-4.80
2023-04-05T04:45:13.557Z,-4.94
2023-04-05T04:47:47.406Z,-4.62
2023-04-05T04:50:24.483Z,-4.57
2023-04-05T04:52:54.063Z,-4.51
2023-04-05T04:55:25.285Z,-4.46
2023-04-05T04:57:53.626Z,-4.57
2023-04-05T05:00:21.157Z,-4.46
2023-04-05T05:02:48.669Z,-4.47
2023-04-05T05:05:16.722Z,-4.45
2023-04-05T05:07:43.249Z,-4.45
2023-04-05T05:10:11.703Z,-4.54
2023-04-05T05:12:39.019Z,-4.42
2023-04-05T05:15:06.294Z,-4.42
2023-04-05T05:17:34.793Z,-4.43
2023-04-05T05:20:05.262Z,-4.40
2023-04-05T05:22:31.819Z,-4.34
2023-04-05T05:24:58.389Z,-4.32
2023-04-05T05:27:24.979Z,-4.28
2023-04-05T05:29:51.525Z,-4.23
2023-04-05T05:32:18.004Z,-4.26
2023-04-05T05:34:45.141Z,-4.18
2023-04-05T05:37:12.800Z,-4.04
2023-04-05T05:39:39.359Z,-3.90
2023-04-05T05:42:06.646Z,-3.88
2023-04-05T05:44:33.161Z,-3.78
2023-04-05T05:46:59.652Z,-3.74
2023-04-05T05:49:26.287Z,-3.60
2023-04-05T05:51:52.908Z,-3.55
2023-04-05T05:54:19.846Z,-3.42
2023-04-05T05:56:46.485Z,-3.37
2023-04-05T05:59:13.268Z,-3.24
2023-04-05T06:16:12.153Z,-2.57
2023-04-05T06:18:39.088Z,-2.40
2023-04-05T06:21:06.298Z,-2.46
2023-04-05T06:23:32.977Z,-2.59
2023-04-05T06:25:59.495Z,-2.24
2023-04-05T06:28:26.682Z,-2.20
2023-04-05T06:30:54.992Z,-2.12
2023-04-05T06:33:32.444Z,-1.97
2023-04-05T06:36:02.077Z,-1.72
2023-04-05T06:38:28.664Z,-1.63
2023-04-05T06:40:58.227Z,-1.57
2023-04-05T06:43:24.731Z,-1.39
2023-04-05T06:45:51.523Z,-1.42
2023-04-05T06:48:18.033Z,-1.36
2023-04-05T06:50:44.838Z,-1.45
2023-04-05T06:53:13.319Z,-1.18
2023-04-05T06:55:39.913Z,-1.06
2023-04-05T06:58:06.453Z,-0.92
2023-04-05T07:00:32.958Z,-0.79
2023-04-05T07:02:59.565Z,-0.81
2023-04-05T07:05:27.207Z,-0.71
2023-04-05T07:07:53.783Z,-1.14
2023-04-05T07:10:20.874Z,-0.69
2023-04-05T07:12:47.482Z,-0.53
2023-04-05T07:15:14.239Z,-0.25
2023-04-05T07:17:41.312Z,-0.31
2023-04-05T07:20:08.360Z,-0.24
2023-04-05T07:22:35.769Z,-0.40
2023-04-05T07:25:02.640Z,-0.04
2023-04-05T07:27:32.316Z,0.06
2023-04-05T07:29:59.098Z,0.10
2023-04-05T07:32:25.814Z,0.33
2023-04-05T07:34:52.405Z,0.73
2023-04-05T07:37:18.991Z,0.96
2023-04-05T07:39:45.511Z,1.26
2023-04-05T07:42:12.001Z,1.54
2023-04-05T07:44:38.524Z,1.46
2023-04-05T07:47:05.362Z,1.00
2023-04-05T07:49:32.058Z,1.53
2023-04-05T07:51:58.533Z,1.33
2023-04-05T07:54:25.133Z,1.19
2023-04-05T07:56:51.764Z,1.03
2023-04-05T07:59:18.351Z,1.48
2023-04-05T08:01:44.903Z,1.60
2023-04-05T08:04:11.768Z,1.68
2023-04-05T08:06:38.696Z,1.90
2023-04-05T08:09:05.985Z,2.05
2023-04-05T08:11:33.163Z,2.17
2023-04-05T08:14:00.170Z,2.08
2023-04-05T08:16:27.633Z,2.00
2023-04-05T08:18:54.231Z,2.22
2023-04-05T08:21:20.870Z,2.40
2023-04-05T08:23:47.568Z,2.71
2023-04-05T08:26:14.456Z,2.41
2023-04-05T08:28:41.110Z,2.93
2023-04-05T08:31:07.691Z,3.08
2023-04-05T08:33:34.397Z,3.64
2023-04-05T08:36:08.665Z,3.43
2023-04-05T08:38:35.715Z,3.36
2023-04-05T08:41:17.043Z,3.30
2023-04-05T08:43:57.740Z,3.17
2023-04-05T08:46:25.365Z,3.39
2023-04-05T08:48:52.737Z,3.38
2023-04-05T08:51:23.480Z,3.15
2023-04-05T08:53:50.649Z,3.54
2023-04-05T08:56:22.096Z,3.37
2023-04-05T08:59:03.052Z,3.27
2023-04-05T09:01:31.256Z,3.19
2023-04-05T09:04:12.270Z,3.27
2023-04-05T09:06:39.132Z,3.33
2023-04-05T09:09:09.254Z,3.10
2023-04-05T09:11:36.330Z,3.35
2023-04-05T09:14:04.971Z,3.70
2023-04-05T09:16:37.021Z,3.47
2023-04-05T09:19:04.063Z,4.00
2023-04-05T10:32:43.464Z,4.51
2023-04-05T10:35:20.371Z,4.04
2023-04-05T10:38:12.082Z,3.90
2023-04-05T10:40:43.462Z,3.80
2023-04-05T10:43:17.032Z,3.77
2023-04-05T10:45:44.432Z,3.87
2023-04-05T10:48:48.450Z,3.98
2023-04-05T10:51:15.352Z,4.08
2023-04-05T10:53:42.377Z,4.17
2023-04-05T10:56:09.566Z,4.13
2023-04-05T10:58:39.743Z,4.35
2023-04-05T11:01:07.611Z,4.06
2023-04-05T11:03:51.513Z,4.17
2023-04-05T11:06:30.485Z,3.60
2023-04-05T11:09:09.184Z,3.69
2023-04-05T11:11:40.004Z,4.12
2023-04-05T11:14:23.370Z,4.00
2023-04-05T11:16:56.521Z,3.99
2023-04-05T11:19:48.125Z,3.73
2023-04-05T11:22:25.763Z,4.26
2023-04-05T11:24:53.804Z,4.51
2023-04-05T11:27:32.096Z,4.15
2023-04-05T11:30:00.469Z,4.03
2023-04-05T11:32:41.757Z,4.51
2023-04-05T11:35:14.874Z,4.66
2023-04-05T11:38:22.102Z,4.40
2023-04-05T11:40:49.055Z,4.57
2023-04-05T11:43:15.686Z,4.58
2023-04-05T11:45:43.480Z,4.46
2023-04-05T11:48:11.979Z,4.26
2023-04-05T11:50:41.926Z,4.15
2023-04-05T11:53:16.130Z,4.33
2023-04-05T11:55:51.148Z,3.74
2023-04-05T11:58:21.391Z,3.92
2023-04-05T12:00:59.520Z,4.27
2023-04-05T12:03:29.397Z,4.07
2023-04-05T12:05:58.315Z,3.79
2023-04-05T12:08:41.998Z,4.27
2023-04-05T12:11:10.702Z,4.43
2023-04-05T12:13:38.751Z,4.48
2023-04-05T12:16:07.112Z,4.54
2023-04-05T12:18:37.571Z,4.60
2023-04-05T12:21:08.100Z,4.63
2023-04-05T12:23:37.073Z,4.40
2023-04-05T12:26:04.339Z,3.96
2023-04-05T12:28:53.332Z,4.13
2023-04-05T12:31:36.196Z,4.51
2023-04-05T12:34:02.824Z,4.60
2023-04-05T12:36:32.145Z,4.64
2023-04-05T12:38:59.032Z,4.89
2023-04-05T12:41:29.925Z,4.80
2023-04-05T12:44:05.196Z,5.27
2023-04-05T12:46:47.849Z,4.88
2023-04-05T12:49:18.813Z,5.39
2023-04-05T12:51:46.536Z,5.40
2023-04-05T12:54:23.383Z,5.17
2023-04-05T12:56:50.762Z,5.54
2023-04-05T12:59:17.372Z,5.33
2023-04-05T13:01:44.004Z,4.93
2023-04-05T13:06:40.406Z,5.22
2023-04-05T13:09:06.917Z,5.42
2023-04-05T13:11:33.469Z,5.52
2023-04-05T13:14:00.179Z,5.48
2023-04-05T13:16:27.290Z,5.38
2023-04-05T13:18:53.871Z,5.27
2023-04-05T13:21:20.479Z,5.09
2023-04-05T13:23:47.076Z,5.16
2023-04-05T13:26:13.652Z,5.31
2023-04-05T13:28:40.283Z,5.32
2023-04-05T13:31:08.323Z,5.47
2023-04-05T13:33:35.329Z,5.59
2023-04-05T13:36:01.987Z,5.58
2023-04-05T13:38:28.539Z,5.65
2023-04-05T13:40:55.454Z,5.43
2023-04-05T13:43:22.564Z,5.69
2023-04-05T13:45:49.368Z,5.90
2023-04-05T13:48:15.898Z,5.94
2023-04-05T13:50:42.534Z,6.06
2023-04-05T13:53:09.237Z,5.14
2023-04-05T13:55:36.029Z,5.48
2023-04-05T13:58:02.559Z,5.64
2023-04-05T14:00:29.065Z,5.75
2023-04-05T14:02:55.820Z,5.83
2023-04-05T14:05:22.472Z,5.72
2023-04-05T14:07:50.346Z,5.32
2023-04-05T14:10:17.736Z,5.31
2023-04-05T14:12:44.372Z,5.70
2023-04-05T14:15:11.489Z,6.06
2023-04-05T14:17:38.134Z,5.84
2023-04-05T14:20:05.260Z,6.16
2023-04-05T14:22:31.911Z,5.99
2023-04-05T14:24:58.483Z,5.61
2023-04-05T14:27:26.922Z,5.89
2023-04-05T14:29:57.172Z,6.11
2023-04-05T14:32:25.492Z,6.01
2023-04-05T14:34:52.422Z,5.72
2023-04-05T14:37:18.990Z,6.07
2023-04-05T14:39:46.752Z,5.82
2023-04-05T14:42:13.339Z,5.75
2023-04-05T14:44:39.899Z,6.06
2023-04-05T14:47:06.591Z,6.19
2023-04-05T14:49:33.123Z,6.03
2023-04-05T14:51:59.879Z,6.07
2023-04-05T14:54:26.437Z,6.25
2023-04-05T14:56:53.024Z,5.68
2023-04-05T14:59:19.638Z,5.94
2023-04-05T15:01:47.311Z,5.61
2023-04-05T15:04:14.006Z,5.96
2023-04-05T15:06:40.795Z,5.75
2023-04-05T15:09:07.373Z,5.99
2023-04-05T15:11:38.598Z,5.97
2023-04-05T15:14:05.360Z,6.39
2023-04-05T15:16:32.078Z,6.06
2023-04-05T15:19:01.841Z,6.24
2023-04-05T15:21:28.521Z,6.09
2023-04-05T15:23:55.910Z,6.44
2023-04-05T15:26:22.461Z,6.26
2023-04-05T15:28:49.012Z,6.52
2023-04-05T15:31:15.630Z,6.45
2023-04-05T15:33:42.224Z,5.96
2023-04-05T15:36:09.007Z,5.67
2023-04-05T15:38:35.649Z,6.13
2023-04-05T15:41:02.363Z,6.17
2023-04-05T15:43:32.538Z,6.28
2023-04-05T15:45:59.211Z,6.06
2023-04-05T15:48:25.860Z,6.02
2023-04-05T15:50:52.830Z,5.96
2023-04-05T15:53:19.454Z,5.84
2023-04-05T15:55:46.190Z,5.13
2023-04-05T15:58:12.912Z,5.34
2023-04-05T16:00:39.616Z,5.14
2023-04-05T16:03:06.496Z,5.00
2023-04-05T16:05:33.126Z,5.22
2023-04-05T16:07:59.742Z,4.65
2023-04-05T16:10:26.374Z,5.06
2023-04-05T16:12:54.272Z,4.66
2023-04-05T16:15:20.923Z,4.64
2023-04-05T16:17:47.769Z,4.43
2023-04-05T16:20:14.786Z,4.09
2023-04-05T16:22:41.549Z,4.00
2023-04-05T16:25:08.286Z,4.18
2023-04-05T16:27:35.969Z,4.11
2023-04-05T16:30:02.640Z,3.92
2023-04-05T16:32:29.232Z,4.11
2023-04-05T16:34:55.795Z,3.81
2023-04-05T16:37:22.380Z,3.91
2023-04-05T16:39:49.024Z,4.11
2023-04-05T16:42:15.737Z,3.91
2023-04-05T16:44:42.302Z,4.05
2023-04-05T16:47:08.965Z,3.91
2023-04-05T16:49:35.585Z,4.12
2023-04-05T16:52:02.275Z,3.99
2023-04-05T16:54:28.853Z,4.25
2023-04-05T16:56:56.353Z,4.16
2023-04-05T16:59:23.144Z,4.45
2023-04-05T17:01:49.924Z,4.45
2023-04-05T17:04:16.632Z,4.51
2023-04-05T17:06:43.211Z,4.17
2023-04-05T17:09:09.885Z,4.47
2023-04-05T17:11:36.463Z,4.48
2023-04-05T17:14:03.016Z,4.13
2023-04-05T17:16:29.642Z,4.31
2023-04-05T17:18:56.374Z,4.40
2023-04-05T17:21:23.125Z,4.07
2023-04-05T17:23:49.710Z,3.87
2023-04-05T17:26:16.264Z,4.20
2023-04-05T17:28:43.042Z,4.12
2023-04-05T17:31:10.976Z,4.26
2023-04-05T17:33:37.583Z,4.32
2023-04-05T17:36:04.358Z,3.96
2023-04-05T17:38:31.032Z,3.76
2023-04-05T17:40:59.219Z,3.56
2023-04-05T17:43:26.645Z,3.30
2023-04-05T17:45:54.440Z,3.33
2023-04-05T17:48:21.265Z,3.00
2023-04-05T17:50:47.953Z,3.08
2023-04-05T17:53:15.716Z,2.94
2023-04-05T17:55:43.348Z,2.52
2023-04-05T17:58:10.017Z,3.02
2023-04-05T18:00:36.565Z,2.79
2023-04-05T18:03:07.318Z,2.40
2023-04-05T18:05:34.794Z,2.79
2023-04-05T18:08:01.468Z,2.92
2023-04-05T18:10:28.318Z,2.85
2023-04-05T18:12:55.004Z,2.59
2023-04-05T18:15:21.714Z,2.32
2023-04-05T18:17:48.348Z,1.89
2023-04-05T18:20:14.985Z,1.67
2023-04-05T18:22:41.553Z,1.28
2023-04-05T18:25:09.815Z,1.07
2023-04-05T18:27:36.780Z,0.99
2023-04-05T18:30:03.547Z,1.05
2023-04-05T18:32:30.337Z,0.91
2023-04-05T18:34:57.004Z,0.80
2023-04-05T18:37:25.190Z,0.81
2023-04-05T18:39:51.736Z,0.95
2023-04-05T18:42:18.346Z,0.81
2023-04-05T18:44:45.505Z,0.73
2023-04-05T18:47:12.312Z,0.84
2023-04-05T18:49:39.063Z,0.61
2023-04-05T18:52:05.867Z,0.11
2023-04-05T18:54:32.442Z,-0.02
2023-04-05T18:56:59.010Z,0.31
2023-04-05T18:59:25.691Z,0.20
2023-04-05T19:01:52.380Z,0.24
2023-04-05T19:04:19.059Z,0.37
2023-04-05T19:06:45.677Z,0.44
2023-04-05T19:09:12.303Z,0.51
2023-04-05T19:11:38.873Z,0.30
2023-04-05T19:14:05.615Z,0.06
2023-04-05T19:16:32.222Z,0.25
2023-04-05T19:18:59.013Z,0.04
2023-04-05T19:21:26.004Z,0.17
2023-04-05T19:23:52.688Z,-0.04
2023-04-05T19:26:21.838Z,-0.12
2023-04-05T19:28:49.228Z,-0.07
2023-04-05T19:31:16.190Z,-0.03
2023-04-05T19:33:42.853Z,-0.05
2023-04-05T19:36:09.675Z,0.22
2023-04-05T19:38:36.480Z,-0.17
2023-04-05T19:41:03.113Z,-0.05
2023-04-05T19:43:31.617Z,-0.26
2023-04-05T19:45:59.744Z,-0.19
2023-04-05T19:48:35.896Z,-0.41
2023-04-05T19:51:08.026Z,-0.31
2023-04-05T19:53:44.749Z,-0.36
2023-04-05T19:56:21.050Z,-0.39
2023-04-05T19:58:56.414Z,-0.58
2023-04-05T20:01:33.590Z,-0.68
2023-04-05T20:04:02.148Z,-0.50
2023-04-05T20:06:33.015Z,-0.36
2023-04-05T20:09:06.128Z,-0.26
2023-04-05T20:11:33.017Z,-0.34
2023-04-05T20:14:01.877Z,-0.40
2023-04-05T20:16:31.491Z,-0.67
2023-04-05T20:19:10.107Z,-0.83
2023-04-05T20:21:37.761Z,-0.91
2023-04-05T20:24:08.524Z,-0.97
2023-04-05T20:26:35.328Z,-0.98
2023-04-05T20:29:04.364Z,-0.85
2023-04-05T20:31:35.855Z,-0.90
2023-04-05T20:34:10.949Z,-0.84
2023-04-05T20:36:43.197Z,-0.93
2023-04-05T20:39:10.125Z,-1.10
2023-04-05T20:41:36.983Z,-1.05
2023-04-05T20:44:03.793Z,-1.09
2023-04-05T20:46:30.485Z,-1.06
2023-04-05T20:48:58.047Z,-1.13
2023-04-05T20:51:24.797Z,-1.19
2023-04-05T20:53:51.604Z,-1.17
2023-04-05T20:56:18.594Z,-1.47
2023-04-05T20:58:45.405Z,-1.29
2023-04-05T21:01:12.005Z,-1.27
2023-04-05T21:03:41.123Z,-1.63
2023-04-05T21:06:09.056Z,-1.42
2023-04-05T21:08:37.101Z,-1.57
2023-04-05T21:11:06.609Z,-1.51
2023-04-05T21:13:34.543Z,-1.72
2023-04-05T21:16:01.218Z,-1.57
2023-04-05T21:18:27.781Z,-1.87
2023-04-05T21:20:54.597Z,-1.78
2023-04-05T21:23:23.317Z,-1.85
2023-04-05T21:25:50.257Z,-1.84
2023-04-05T21:28:17.060Z,-1.84
2023-04-05T21:30:43.857Z,-1.92
2023-04-05T21:33:11.156Z,-1.89
2023-04-05T21:35:38.222Z,-2.01
2023-04-05T21:38:05.475Z,-1.90
2023-04-05T21:40:32.411Z,-1.90
2023-04-05T21:42:59.400Z,-2.00
2023-04-05T21:45:26.400Z,-1.95
2023-04-05T21:47:53.368Z,-1.93
2023-04-05T21:50:20.292Z,-1.98
2023-04-05T21:52:47.142Z,-2.32
2023-04-05T21:55:14.141Z,-2.24
2023-04-05T21:57:40.770Z,-2.21
2023-04-05T22:00:11.288Z,-2.40
2023-04-05T22:02:40.841Z,-2.51
2023-04-05T22:05:08.818Z,-2.69
2023-04-05T22:07:35.823Z,-2.55
2023-04-05T22:10:02.787Z,-2.36
2023-04-05T22:12:29.591Z,-2.49
2023-04-05T22:14:56.557Z,-2.56
2023-04-05T22:17:23.296Z,-2.50
2023-04-05T22:19:50.012Z,-2.63
2023-04-05T22:22:17.241Z,-2.78
2023-04-05T22:24:44.092Z,-2.63
2023-04-05T22:27:12.099Z,-2.67
2023-04-05T22:29:39.242Z,-2.70
2023-04-05T22:32:06.385Z,-2.54
2023-04-05T22:34:33.137Z,-2.56
